Time;durP1;ratioP1;P1;durP2;ratioP2;P2;SDS_P1;SDS_P2;PMS_P1;PMS_P2;Temp;Humidity;BMP_temperature;BMP_pressure;BME280_temperature;BME280_humidity;BME280_pressure;Samples;Min_cycle;Max_cycle;Signal;HPM_P1;HPM_P2
2024/01/26 00:01:38;;;;;;;13.40;5.40;;;8.70;99.90;;;;;;4901870;29;20245;-78
2024/01/26 00:04:08;;;;;;;11.75;4.55;;;8.70;99.90;;;;;;4912478;29;20229;-78
2024/01/26 00:06:35;;;;;;;14.43;4.40;;;8.70;99.90;;;;;;4919682;29;20225;-78
2024/01/26 00:09:10;;;;;;;17.27;5.10;;;8.70;99.90;;;;;;4921071;29;20225;-78
2024/01/26 00:11:39;;;;;;;15.52;4.13;;;8.70;99.90;;;;;;4920179;29;20240;-78
2024/01/26 00:14:07;;;;;;;7.75;4.43;;;8.60;99.90;;;;;;4920186;29;20308;-76
2024/01/26 00:16:37;;;;;;;13.93;5.22;;;8.70;99.90;;;;;;4919413;29;20225;-78
2024/01/26 00:19:05;;;;;;;18.25;6.05;;;8.60;99.90;;;;;;4919744;29;20560;-78
2024/01/26 00:21:33;;;;;;;12.40;5.05;;;8.60;99.90;;;;;;4918960;29;20225;-77
2024/01/26 00:24:01;;;;;;;13.55;5.80;;;8.60;99.90;;;;;;4914162;29;20229;-79
2024/01/26 00:26:28;;;;;;;11.55;4.47;;;8.60;99.90;;;;;;4918806;29;20740;-77
2024/01/26 00:28:56;;;;;;;11.65;5.72;;;8.60;99.90;;;;;;4918897;29;20226;-77
2024/01/26 00:31:23;;;;;;;10.88;4.50;;;8.50;99.90;;;;;;4919365;29;20229;-78
2024/01/26 00:33:51;;;;;;;9.45;4.25;;;8.50;99.90;;;;;;4910147;29;20257;-77
2024/01/26 00:36:18;;;;;;;14.15;4.75;;;8.50;99.90;;;;;;4918955;29;20229;-76
2024/01/26 00:38:45;;;;;;;11.15;4.75;;;8.50;99.90;;;;;;4918678;29;20225;-77
2024/01/26 00:41:12;;;;;;;12.32;5.40;;;8.50;99.90;;;;;;4925216;29;20230;-79
2024/01/26 00:43:39;;;;;;;15.90;5.60;;;8.50;99.90;;;;;;4922130;29;20236;-77
2024/01/26 00:46:09;;;;;;;23.35;8.98;;;8.50;99.90;;;;;;4918099;29;20221;-77
2024/01/26 00:48:36;;;;;;;14.20;4.68;;;8.50;99.90;;;;;;4917792;29;20248;-79
2024/01/26 00:51:03;;;;;;;12.13;5.85;;;8.50;99.90;;;;;;4919188;29;20234;-78
2024/01/26 00:53:31;;;;;;;13.85;5.05;;;8.50;99.90;;;;;;4918201;29;20239;-79
2024/01/26 00:55:58;;;;;;;11.98;5.07;;;8.50;99.90;;;;;;4918624;29;20286;-78
2024/01/26 00:58:25;;;;;;;12.15;4.93;;;8.50;99.90;;;;;;4917975;29;20264;-78
2024/01/26 01:00:52;;;;;;;13.40;5.30;;;8.40;99.90;;;;;;4918773;29;20296;-79
2024/01/26 01:03:20;;;;;;;14.45;5.35;;;8.40;99.90;;;;;;4918812;29;20240;-77
2024/01/26 01:05:47;;;;;;;17.48;5.60;;;8.50;99.90;;;;;;4918188;29;20255;-79
2024/01/26 01:08:14;;;;;;;11.82;4.85;;;8.40;99.90;;;;;;4918844;29;20230;-79
2024/01/26 01:10:41;;;;;;;11.13;5.05;;;8.40;99.90;;;;;;4917893;29;20229;-79
2024/01/26 01:13:10;;;;;;;16.35;8.25;;;8.40;99.90;;;;;;4918424;29;20225;-77
2024/01/26 01:15:37;;;;;;;12.48;5.55;;;8.40;99.90;;;;;;4917843;29;20241;-77
2024/01/26 01:18:05;;;;;;;14.23;4.93;;;8.40;99.90;;;;;;4918800;29;20604;-77
2024/01/26 01:20:34;;;;;;;14.98;5.68;;;8.30;99.90;;;;;;4917730;29;20257;-79
2024/01/26 01:23:01;;;;;;;16.00;4.78;;;8.30;99.90;;;;;;4918640;29;20233;-77
2024/01/26 01:25:28;;;;;;;12.70;4.53;;;8.30;99.90;;;;;;4918302;29;20651;-79
2024/01/26 01:27:55;;;;;;;13.07;5.38;;;8.20;99.90;;;;;;4918644;29;20581;-79
2024/01/26 01:30:22;;;;;;;14.10;5.70;;;8.20;99.90;;;;;;4918608;29;20684;-76
2024/01/26 01:32:49;;;;;;;19.15;5.57;;;8.20;99.90;;;;;;4917965;29;20253;-77
2024/01/26 01:35:16;;;;;;;14.98;6.60;;;8.20;99.90;;;;;;4918395;29;20221;-77
2024/01/26 01:37:45;;;;;;;12.68;5.63;;;8.10;99.90;;;;;;4917614;29;20333;-77
2024/01/26 01:40:13;;;;;;;15.05;6.28;;;8.10;99.90;;;;;;4918402;29;20575;-79
2024/01/26 01:42:40;;;;;;;15.18;6.57;;;8.10;99.90;;;;;;4917624;29;20241;-76
2024/01/26 01:45:15;;;;;;;12.32;5.30;;;8.10;99.90;;;;;;4917947;29;20218;-79
2024/01/26 01:47:43;;;;;;;15.43;4.75;;;8.10;99.90;;;;;;4917738;29;20235;-76
2024/01/26 01:50:10;;;;;;;21.40;5.70;;;8.00;99.90;;;;;;4918488;29;20221;-79
2024/01/26 01:52:41;;;;;;;14.07;5.28;;;8.00;99.90;;;;;;4917835;29;20573;-77
2024/01/26 01:55:11;;;;;;;16.05;6.25;;;8.00;99.90;;;;;;4918361;29;20225;-77
2024/01/26 01:57:40;;;;;;;17.88;4.55;;;8.00;99.90;;;;;;4916688;29;20229;-76
2024/01/26 02:00:15;;;;;;;18.30;5.60;;;7.90;99.90;;;;;;4918073;29;20232;-76
2024/01/26 02:02:46;;;;;;;12.23;5.97;;;7.90;99.90;;;;;;4917618;29;20237;-79
2024/01/26 02:05:14;;;;;;;15.43;5.95;;;7.90;99.90;;;;;;4917596;29;20333;-77
2024/01/26 02:07:41;;;;;;;14.40;5.75;;;7.80;99.90;;;;;;4917677;29;20313;-79
2024/01/26 02:10:12;;;;;;;13.10;5.80;;;7.90;99.90;;;;;;4916840;29;20229;-76
2024/01/26 02:12:39;;;;;;;13.20;6.07;;;7.80;99.90;;;;;;4917032;29;20268;-79
2024/01/26 02:15:08;;;;;;;17.10;7.70;;;7.80;99.90;;;;;;4917650;29;20225;-78
2024/01/26 02:17:36;;;;;;;16.17;6.32;;;7.70;99.90;;;;;;4916973;29;20229;-77
2024/01/26 02:20:05;;;;;;;13.60;5.82;;;7.70;99.90;;;;;;4917505;29;20233;-77
2024/01/26 02:22:32;;;;;;;16.95;5.70;;;7.80;99.90;;;;;;4917345;29;20297;-78
2024/01/26 02:25:00;;;;;;;18.17;6.93;;;7.70;99.90;;;;;;4917520;29;20229;-79
2024/01/26 02:27:27;;;;;;;13.73;5.82;;;7.70;99.90;;;;;;4917475;29;20237;-77
2024/01/26 02:29:54;;;;;;;10.25;5.55;;;7.70;99.90;;;;;;4917066;29;20225;-77
2024/01/26 02:32:21;;;;;;;17.23;7.70;;;7.70;99.90;;;;;;4919096;29;20244;-78
2024/01/26 02:34:48;;;;;;;12.60;6.05;;;7.70;99.90;;;;;;4918782;29;20672;-77
2024/01/26 02:37:16;;;;;;;17.33;6.20;;;7.70;99.90;;;;;;4918381;29;20316;-76
2024/01/26 02:39:43;;;;;;;11.27;6.25;;;7.70;99.90;;;;;;4918048;29;20225;-77
2024/01/26 02:42:12;;;;;;;9.35;6.18;;;7.70;99.90;;;;;;4917905;29;20225;-75
2024/01/26 02:44:39;;;;;;;12.27;6.05;;;7.70;99.90;;;;;;4917089;29;20688;-76
2024/01/26 02:47:06;;;;;;;16.67;7.10;;;7.70;99.90;;;;;;4917253;29;20225;-76
2024/01/26 02:49:34;;;;;;;12.73;5.28;;;7.70;99.90;;;;;;4916950;29;20239;-77
2024/01/26 02:52:01;;;;;;;11.88;6.28;;;7.70;99.90;;;;;;4915872;29;20226;-76
2024/01/26 02:54:29;;;;;;;13.73;6.38;;;7.70;99.90;;;;;;4917049;29;20694;-76
2024/01/26 02:56:59;;;;;;;10.73;5.53;;;7.60;99.90;;;;;;4916855;29;20233;-78
2024/01/26 02:59:27;;;;;;;13.30;6.57;;;7.60;99.90;;;;;;4917174;29;20229;-78
2024/01/26 03:01:54;;;;;;;23.83;7.82;;;7.60;99.90;;;;;;4915773;29;20232;-77
2024/01/26 03:04:21;;;;;;;18.77;7.20;;;7.60;99.90;;;;;;4917357;29;20235;-78
2024/01/26 03:06:48;;;;;;;13.75;6.78;;;7.60;99.90;;;;;;4917178;29;20240;-76
2024/01/26 03:09:14;;;;;;;14.88;6.00;;;7.60;99.90;;;;;;4917327;29;20226;-78
2024/01/26 03:11:43;;;;;;;15.50;6.85;;;7.60;99.90;;;;;;4916735;29;20702;-76
2024/01/26 03:14:11;;;;;;;12.43;6.65;;;7.60;99.90;;;;;;4917356;29;20230;-76
2024/01/26 03:16:44;;;;;;;17.00;7.20;;;7.60;99.90;;;;;;4917063;29;20634;-78
2024/01/26 03:19:11;;;;;;;11.88;6.30;;;7.60;99.90;;;;;;4916977;29;20236;-78
2024/01/26 03:21:44;;;;;;;17.17;6.80;;;7.50;99.90;;;;;;4919979;29;20312;-78
2024/01/26 03:24:13;;;;;;;13.80;6.78;;;7.50;99.90;;;;;;4919926;29;20244;-78
2024/01/26 03:26:40;;;;;;;15.57;7.88;;;7.50;99.90;;;;;;4920776;29;20236;-78
2024/01/26 03:29:09;;;;;;;8.90;5.47;;;7.50;99.90;;;;;;4920487;29;20233;-76
2024/01/26 03:31:36;;;;;;;15.82;7.70;;;7.50;99.90;;;;;;4920590;29;20229;-78
2024/01/26 03:34:04;;;;;;;13.55;6.75;;;7.50;99.90;;;;;;4919277;29;20325;-78
2024/01/26 03:36:31;;;;;;;17.30;7.50;;;7.50;99.90;;;;;;4920614;29;20688;-76
2024/01/26 03:38:59;;;;;;;19.60;7.50;;;7.50;99.90;;;;;;4919955;29;20383;-77
2024/01/26 03:41:26;;;;;;;15.65;7.13;;;7.50;99.90;;;;;;4920496;29;20229;-78
2024/01/26 03:43:53;;;;;;;16.65;7.50;;;7.50;99.90;;;;;;4919606;29;20229;-78
2024/01/26 03:46:21;;;;;;;20.30;8.02;;;7.50;99.90;;;;;;4920259;29;20232;-76
2024/01/26 03:48:48;;;;;;;14.55;7.53;;;7.50;99.90;;;;;;4920115;29;20241;-76
2024/01/26 03:51:17;;;;;;;11.82;6.90;;;7.50;99.90;;;;;;4920242;29;21085;-78
2024/01/26 03:53:44;;;;;;;13.40;6.90;;;7.50;99.90;;;;;;4920015;29;20241;-78
2024/01/26 03:56:11;;;;;;;11.77;6.28;;;7.50;99.90;;;;;;4919792;29;20234;-77
2024/01/26 03:58:39;;;;;;;15.90;7.10;;;7.50;99.90;;;;;;4924436;29;20252;-80
2024/01/26 04:01:06;;;;;;;12.20;5.88;;;7.60;99.90;;;;;;4923368;29;20244;-80
2024/01/26 04:03:33;;;;;;;15.68;8.23;;;7.60;99.90;;;;;;4920094;29;20684;-77
2024/01/26 04:06:03;;;;;;;15.55;6.55;;;7.60;99.90;;;;;;4919433;29;20218;-77
2024/01/26 04:08:31;;;;;;;11.73;6.07;;;7.60;99.90;;;;;;4919826;29;20297;-79
2024/01/26 04:10:58;;;;;;;14.63;7.97;;;7.60;99.90;;;;;;4919929;29;20226;-79
2024/01/26 04:13:25;;;;;;;14.48;6.60;;;7.60;99.90;;;;;;4920129;29;20225;-79
2024/01/26 04:15:52;;;;;;;12.60;7.10;;;7.60;99.90;;;;;;4919480;29;20226;-77
2024/01/26 04:18:20;;;;;;;15.30;7.38;;;7.60;99.90;;;;;;4919855;29;20257;-79
2024/01/26 04:20:48;;;;;;;10.10;6.63;;;7.60;99.90;;;;;;4919629;29;20221;-79
2024/01/26 04:23:15;;;;;;;18.40;7.47;;;7.60;99.90;;;;;;4919012;29;20240;-79
2024/01/26 04:25:44;;;;;;;12.85;7.95;;;7.60;99.90;;;;;;4919698;29;20232;-78
2024/01/26 04:28:11;;;;;;;20.60;7.18;;;7.50;99.90;;;;;;4919095;29;20237;-78
2024/01/26 04:30:39;;;;;;;15.60;6.90;;;7.50;99.90;;;;;;4919610;29;20316;-77
2024/01/26 04:33:07;;;;;;;9.45;5.97;;;7.50;99.90;;;;;;4918151;29;20233;-79
2024/01/26 04:35:37;;;;;;;18.67;8.60;;;7.50;99.90;;;;;;4919187;29;20233;-78
2024/01/26 04:38:07;;;;;;;17.33;7.68;;;7.50;99.90;;;;;;4918833;29;20233;-77
2024/01/26 04:40:34;;;;;;;13.43;6.57;;;7.50;99.90;;;;;;4919159;29;20239;-79
2024/01/26 04:43:02;;;;;;;18.20;7.22;;;7.50;99.90;;;;;;4918905;29;20257;-77
2024/01/26 04:45:29;;;;;;;21.00;6.75;;;7.50;99.90;;;;;;4918420;29;20312;-78
2024/01/26 04:47:56;;;;;;;13.45;6.65;;;7.50;99.90;;;;;;4918857;29;20221;-79
2024/01/26 04:50:24;;;;;;;22.75;7.13;;;7.50;99.90;;;;;;4919291;29;20253;-79
2024/01/26 04:52:52;;;;;;;16.98;6.68;;;7.50;99.90;;;;;;4919203;29;20582;-79
2024/01/26 04:55:19;;;;;;;17.02;5.97;;;7.50;99.90;;;;;;4918487;29;20225;-77
2024/01/26 04:57:48;;;;;;;13.52;7.05;;;7.50;99.90;;;;;;4919152;29;20231;-79
2024/01/26 05:00:18;;;;;;;17.00;6.97;;;7.60;99.90;;;;;;4918450;29;20237;-79
2024/01/26 05:02:45;;;;;;;14.43;6.22;;;7.60;99.90;;;;;;4918824;29;20221;-77
2024/01/26 05:05:13;;;;;;;13.45;6.63;;;7.60;99.90;;;;;;4918432;29;20230;-77
2024/01/26 05:07:40;;;;;;;13.93;6.63;;;7.60;99.90;;;;;;4919079;29;20229;-78
2024/01/26 05:10:08;;;;;;;12.43;6.30;;;7.60;99.90;;;;;;4918431;29;20233;-79
2024/01/26 05:12:36;;;;;;;9.48;5.90;;;7.60;99.90;;;;;;4918604;29;20228;-77
2024/01/26 05:15:03;;;;;;;11.05;5.78;;;7.60;99.90;;;;;;4918151;29;20248;-77
2024/01/26 05:17:32;;;;;;;9.52;6.88;;;7.60;99.90;;;;;;4918290;29;20244;-76
2024/01/26 05:19:59;;;;;;;16.00;6.72;;;7.60;99.90;;;;;;4918739;29;20347;-77
2024/01/26 05:22:26;;;;;;;17.48;7.20;;;7.60;99.90;;;;;;4918316;29;20226;-77
2024/01/26 05:24:53;;;;;;;14.48;6.30;;;7.60;99.90;;;;;;4918564;29;20225;-77
2024/01/26 05:27:20;;;;;;;18.60;8.35;;;7.60;99.90;;;;;;4918190;29;20225;-77
2024/01/26 05:29:47;;;;;;;12.40;5.93;;;7.70;99.90;;;;;;4918428;29;20226;-79
2024/01/26 05:32:14;;;;;;;12.25;6.88;;;7.70;99.90;;;;;;4917741;29;20308;-77
2024/01/26 05:34:42;;;;;;;12.30;7.20;;;7.70;99.90;;;;;;4918155;29;20229;-77
2024/01/26 05:37:12;;;;;;;14.95;7.10;;;7.70;99.90;;;;;;4917751;29;20236;-77
2024/01/26 05:39:40;;;;;;;15.63;7.45;;;7.70;99.90;;;;;;4917910;29;20312;-76
2024/01/26 05:42:07;;;;;;;16.85;8.05;;;7.70;99.90;;;;;;4917294;29;20280;-78
2024/01/26 05:44:34;;;;;;;15.95;7.80;;;7.70;99.90;;;;;;4917194;29;20229;-78
2024/01/26 05:47:01;;;;;;;12.63;6.63;;;7.70;99.90;;;;;;4918217;29;20233;-78
2024/01/26 05:49:28;;;;;;;16.67;7.28;;;7.70;99.90;;;;;;4917155;29;20225;-78
2024/01/26 05:51:57;;;;;;;12.05;6.60;;;7.70;99.90;;;;;;4918228;29;20320;-78
2024/01/26 05:54:23;;;;;;;11.00;7.22;;;7.60;99.90;;;;;;4917436;29;20277;-78
2024/01/26 05:56:50;;;;;;;13.18;6.78;;;7.60;99.90;;;;;;4918160;29;20231;-78
2024/01/26 05:59:18;;;;;;;13.77;7.47;;;7.50;99.90;;;;;;4916930;29;20225;-77
2024/01/26 06:01:45;;;;;;;11.80;6.80;;;7.40;99.90;;;;;;4917961;29;20249;-78
2024/01/26 06:04:12;;;;;;;12.70;7.28;;;7.40;99.90;;;;;;4917177;29;20235;-78
2024/01/26 06:06:44;;;;;;;12.55;7.30;;;7.30;99.90;;;;;;4917576;29;20240;-77
2024/01/26 06:09:13;;;;;;;19.70;8.05;;;7.30;99.90;;;;;;4916566;29;20226;-78
2024/01/26 06:11:43;;;;;;;15.60;6.43;;;7.30;99.90;;;;;;4917474;29;20225;-78
2024/01/26 06:14:10;;;;;;;14.40;6.47;;;7.30;99.90;;;;;;4917219;29;20233;-78
2024/01/26 06:16:37;;;;;;;14.30;6.35;;;7.40;99.90;;;;;;4916303;29;20236;-79
2024/01/26 06:19:04;;;;;;;9.88;6.20;;;7.50;99.90;;;;;;4917551;29;20221;-79
2024/01/26 06:21:31;;;;;;;10.93;6.97;;;7.50;99.90;;;;;;4917078;29;20229;-79
2024/01/26 06:23:59;;;;;;;16.10;7.38;;;7.50;99.90;;;;;;4917250;29;20236;-80
2024/01/26 06:26:27;;;;;;;16.95;8.20;;;7.60;99.90;;;;;;4916836;29;20230;-77
2024/01/26 06:28:54;;;;;;;8.75;5.30;;;7.60;99.90;;;;;;4916980;29;20692;-77
2024/01/26 06:31:26;;;;;;;11.60;6.07;;;7.60;99.90;;;;;;4916668;29;20225;-78
2024/01/26 06:33:53;;;;;;;14.07;7.20;;;7.60;99.90;;;;;;4917274;29;20226;-77
2024/01/26 06:36:21;;;;;;;10.20;6.68;;;7.50;99.90;;;;;;4916097;29;20234;-76
2024/01/26 06:38:48;;;;;;;19.45;8.82;;;7.60;99.90;;;;;;4917455;29;20232;-78
2024/01/26 06:41:14;;;;;;;15.65;5.97;;;7.60;99.90;;;;;;4916838;29;20574;-76
2024/01/26 06:43:47;;;;;;;15.90;6.50;;;7.50;99.90;;;;;;4917180;29;20236;-77
2024/01/26 06:46:14;;;;;;;15.65;6.95;;;7.60;99.90;;;;;;4916612;29;20233;-78
2024/01/26 06:48:41;;;;;;;16.10;7.53;;;7.50;99.90;;;;;;4917832;29;20676;-78
2024/01/26 06:51:08;;;;;;;11.93;6.40;;;7.50;99.90;;;;;;4917240;29;20229;-76
2024/01/26 06:53:35;;;;;;;18.77;10.52;;;7.50;99.90;;;;;;4917129;29;20649;-76
2024/01/26 06:56:02;;;;;;;25.70;10.77;;;7.40;99.90;;;;;;4919365;29;20240;-79
2024/01/26 06:58:30;;;;;;;14.27;8.35;;;7.30;99.90;;;;;;4916952;29;20229;-77
2024/01/26 07:00:58;;;;;;;13.75;7.90;;;7.40;99.90;;;;;;4916806;29;20675;-76
2024/01/26 07:03:25;;;;;;;14.18;8.43;;;7.40;99.90;;;;;;4915800;29;20233;-79
2024/01/26 07:05:54;;;;;;;16.52;8.80;;;7.40;99.90;;;;;;4917479;29;20225;-78
2024/01/26 07:08:22;;;;;;;15.57;8.00;;;7.40;99.90;;;;;;4916865;29;20225;-78
2024/01/26 07:10:49;;;;;;;14.63;6.63;;;7.40;99.90;;;;;;4917399;29;20619;-76
2024/01/26 07:13:16;;;;;;;13.18;6.90;;;7.30;99.90;;;;;;4915750;29;20246;-76
2024/01/26 07:15:43;;;;;;;25.80;8.48;;;7.30;99.90;;;;;;4916727;29;20221;-78
2024/01/26 07:18:12;;;;;;;10.60;6.75;;;7.30;99.90;;;;;;4917956;29;20575;-78
2024/01/26 07:20:39;;;;;;;15.20;7.20;;;7.30;99.90;;;;;;4917398;29;20748;-77
2024/01/26 07:23:06;;;;;;;12.60;6.78;;;7.30;99.90;;;;;;4918783;29;20225;-77
2024/01/26 07:25:34;;;;;;;16.15;7.97;;;7.30;99.90;;;;;;4916510;29;20237;-77
2024/01/26 07:28:01;;;;;;;15.30;7.80;;;7.20;99.90;;;;;;4918385;29;20233;-79
2024/01/26 07:30:28;;;;;;;16.70;8.32;;;7.20;99.90;;;;;;4908271;29;20236;-78
2024/01/26 07:32:55;;;;;;;18.17;8.25;;;7.20;99.90;;;;;;4916284;29;20312;-78
2024/01/26 07:35:23;;;;;;;10.45;6.88;;;7.20;99.90;;;;;;4916329;29;20568;-77
2024/01/26 07:37:50;;;;;;;16.35;6.68;;;7.30;99.90;;;;;;4916943;29;20677;-77
2024/01/26 07:40:18;;;;;;;26.05;8.57;;;7.20;99.90;;;;;;4916758;29;20574;-77
2024/01/26 07:42:45;;;;;;;10.30;6.55;;;7.30;99.90;;;;;;4916237;29;20268;-77
2024/01/26 07:45:14;;;;;;;19.27;7.53;;;7.30;99.90;;;;;;4916799;29;20229;-77
2024/01/26 07:47:41;;;;;;;14.05;7.05;;;7.30;99.90;;;;;;4916633;29;20233;-77
2024/01/26 07:50:10;;;;;;;14.13;6.93;;;7.30;99.90;;;;;;4917087;29;20277;-77
2024/01/26 07:52:39;;;;;;;16.25;8.68;;;7.30;99.90;;;;;;4915883;29;20264;-76
2024/01/26 07:55:09;;;;;;;11.05;7.57;;;7.30;99.90;;;;;;4916628;29;20229;-77
2024/01/26 07:57:37;;;;;;;17.10;9.00;;;7.30;99.90;;;;;;4916821;29;20277;-78
2024/01/26 08:00:06;;;;;;;14.25;6.75;;;7.30;99.90;;;;;;4917401;29;20313;-77
2024/01/26 08:02:33;;;;;;;14.57;7.38;;;7.40;99.90;;;;;;4900161;29;20241;-77
2024/01/26 08:05:00;;;;;;;15.23;8.23;;;7.40;99.90;;;;;;4916715;29;20221;-77
2024/01/26 08:07:28;;;;;;;12.30;6.72;;;7.40;99.90;;;;;;4908772;29;20714;-77
2024/01/26 08:09:56;;;;;;;10.95;7.78;;;7.40;99.90;;;;;;4920416;29;20702;-76
2024/01/26 08:12:24;;;;;;;15.27;8.35;;;7.40;99.90;;;;;;4920382;29;20234;-77
2024/01/26 08:14:51;;;;;;;17.50;8.57;;;7.50;99.90;;;;;;4919624;29;20574;-77
2024/01/26 08:17:18;;;;;;;17.95;8.82;;;7.50;99.90;;;;;;4911017;29;20318;-79
2024/01/26 08:19:45;;;;;;;12.70;7.65;;;7.50;99.90;;;;;;4919705;29;20692;-76
2024/01/26 08:22:12;;;;;;;14.57;8.98;;;7.60;99.90;;;;;;4920126;29;20320;-76
2024/01/26 08:24:39;;;;;;;15.38;8.05;;;7.70;99.90;;;;;;4919153;29;20233;-77
2024/01/26 08:27:07;;;;;;;17.48;8.07;;;7.70;99.90;;;;;;4918526;29;20233;-79
2024/01/26 08:29:34;;;;;;;16.05;7.88;;;7.70;99.90;;;;;;4919852;29;20284;-79
2024/01/26 08:32:01;;;;;;;16.38;7.40;;;7.70;99.90;;;;;;4920092;29;20229;-77
2024/01/26 08:34:28;;;;;;;17.90;7.57;;;7.70;99.90;;;;;;4920071;29;20237;-77
2024/01/26 08:36:56;;;;;;;16.95;8.00;;;7.80;99.90;;;;;;4919258;29;20237;-78
2024/01/26 08:39:23;;;;;;;19.80;8.00;;;7.90;99.90;;;;;;4919629;29;20229;-77
2024/01/26 08:41:50;;;;;;;17.67;8.05;;;8.00;99.90;;;;;;4919777;29;20548;-77
2024/01/26 08:44:19;;;;;;;25.38;12.02;;;8.00;99.90;;;;;;4918992;29;20690;-77
2024/01/26 08:46:51;;;;;;;21.10;9.75;;;8.10;99.90;;;;;;4919017;29;20615;-79
2024/01/26 08:49:26;;;;;;;15.32;9.43;;;8.10;99.90;;;;;;4919388;29;20225;-77
2024/01/26 08:51:53;;;;;;;16.40;8.27;;;8.10;99.90;;;;;;4909520;29;20327;-78
2024/01/26 08:54:20;;;;;;;13.93;7.60;;;8.20;99.90;;;;;;4918846;29;20313;-77
2024/01/26 08:56:47;;;;;;;16.35;8.50;;;8.30;99.90;;;;;;4918570;29;20226;-78
2024/01/26 08:59:14;;;;;;;15.50;8.35;;;8.20;99.90;;;;;;4919605;29;20312;-77
2024/01/26 09:01:43;;;;;;;13.40;6.70;;;8.30;99.90;;;;;;4919011;29;20226;-77
2024/01/26 09:04:10;;;;;;;19.92;8.82;;;8.30;99.90;;;;;;4919509;29;20267;-80
2024/01/26 09:06:37;;;;;;;16.95;7.22;;;8.30;99.90;;;;;;4918850;29;20229;-78
2024/01/26 09:09:06;;;;;;;18.08;8.30;;;8.40;99.90;;;;;;4919284;29;20540;-76
2024/01/26 09:11:34;;;;;;;19.02;8.65;;;8.40;99.90;;;;;;4919464;29;20233;-76
2024/01/26 09:14:01;;;;;;;16.85;7.80;;;8.50;99.90;;;;;;4918479;29;20289;-78
2024/01/26 09:16:28;;;;;;;15.88;8.02;;;8.50;99.90;;;;;;4919356;29;20226;-77
2024/01/26 09:18:57;;;;;;;17.42;8.32;;;8.50;99.90;;;;;;4918805;29;20279;-79
2024/01/26 09:21:24;;;;;;;15.93;7.85;;;8.50;99.90;;;;;;4919036;29;20229;-78
2024/01/26 09:23:51;;;;;;;18.00;7.95;;;8.50;99.90;;;;;;4918393;29;20288;-78
2024/01/26 09:26:18;;;;;;;15.00;7.82;;;8.50;99.90;;;;;;4919194;29;20293;-78
2024/01/26 09:28:46;;;;;;;11.48;8.15;;;8.50;99.90;;;;;;4918909;29;20237;-78
2024/01/26 09:31:13;;;;;;;14.60;8.27;;;8.50;99.90;;;;;;4921103;29;20233;-76
2024/01/26 09:33:40;;;;;;;13.35;7.15;;;8.50;99.90;;;;;;4921683;29;20229;-76
2024/01/26 09:36:09;;;;;;;14.13;8.30;;;8.60;99.90;;;;;;4918305;29;20225;-76
2024/01/26 09:38:37;;;;;;;14.77;8.18;;;8.60;99.90;;;;;;4920935;29;20684;-78
2024/01/26 09:41:04;;;;;;;13.80;7.78;;;8.60;99.90;;;;;;4919064;29;20241;-78
2024/01/26 09:43:31;;;;;;;14.73;7.28;;;8.70;99.90;;;;;;4918345;29;20233;-78
2024/01/26 09:46:04;;;;;;;12.82;7.03;;;8.70;99.90;;;;;;4918454;29;20226;-78
2024/01/26 09:48:34;;;;;;;17.35;8.40;;;8.80;99.90;;;;;;4918106;29;20716;-78
2024/01/26 09:51:01;;;;;;;16.17;7.10;;;8.80;99.90;;;;;;4917795;29;20230;-78
2024/01/26 09:53:32;;;;;;;16.40;7.80;;;8.90;99.90;;;;;;4918347;29;20237;-78
2024/01/26 09:56:01;;;;;;;14.45;7.85;;;9.00;99.90;;;;;;4910238;29;20241;-78
2024/01/26 09:58:28;;;;;;;14.30;6.75;;;9.00;99.90;;;;;;4918349;29;20226;-78
2024/01/26 10:00:56;;;;;;;16.98;8.00;;;9.10;99.90;;;;;;4917900;29;20229;-78
2024/01/26 10:03:24;;;;;;;12.43;6.95;;;9.20;99.90;;;;;;4918483;29;20688;-78
2024/01/26 10:05:51;;;;;;;14.48;7.72;;;9.20;99.90;;;;;;4917473;29;20236;-79
2024/01/26 10:08:18;;;;;;;11.88;8.20;;;9.30;99.90;;;;;;4918884;29;20229;-79
2024/01/26 10:10:47;;;;;;;12.18;6.80;;;9.40;99.90;;;;;;4918512;29;20236;-77
2024/01/26 10:13:15;;;;;;;18.95;7.25;;;9.50;99.90;;;;;;4917921;29;20256;-79
2024/01/26 10:15:42;;;;;;;19.15;9.52;;;9.60;99.90;;;;;;4918722;29;20316;-79
2024/01/26 10:18:09;;;;;;;16.23;7.80;;;9.60;99.90;;;;;;4917665;29;20226;-79
2024/01/26 10:20:38;;;;;;;13.23;7.43;;;9.60;99.90;;;;;;4917615;29;20699;-78
2024/01/26 10:23:06;;;;;;;10.93;7.90;;;9.70;99.90;;;;;;4917924;29;20233;-78
2024/01/26 10:25:33;;;;;;;11.32;6.80;;;9.70;99.90;;;;;;4919039;29;20680;-79
2024/01/26 10:28:08;;;;;;;12.52;7.15;;;9.70;99.90;;;;;;4917856;29;20229;-79
2024/01/26 10:30:35;;;;;;;11.27;6.32;;;9.80;99.90;;;;;;4916798;29;20245;-78
2024/01/26 10:33:02;;;;;;;18.90;7.20;;;9.80;99.90;;;;;;4917795;29;20229;-78
2024/01/26 10:35:30;;;;;;;12.90;7.20;;;9.80;99.90;;;;;;4918242;29;20240;-78
2024/01/26 10:37:57;;;;;;;14.75;7.72;;;9.80;99.90;;;;;;4917019;29;20688;-79
2024/01/26 10:40:26;;;;;;;12.15;6.00;;;9.80;99.90;;;;;;4918375;29;20225;-78
2024/01/26 10:42:54;;;;;;;15.75;7.80;;;9.90;99.90;;;;;;4916621;29;20328;-78
2024/01/26 10:45:22;;;;;;;10.77;7.05;;;9.90;99.90;;;;;;4918329;29;20222;-79
2024/01/26 10:47:50;;;;;;;14.57;7.10;;;9.90;99.90;;;;;;4917693;29;20240;-79
2024/01/26 10:50:19;;;;;;;11.23;6.60;;;10.00;99.90;;;;;;4916982;29;20240;-79
2024/01/26 10:52:49;;;;;;;15.20;8.07;;;10.00;99.90;;;;;;4917744;29;20240;-78
2024/01/26 10:55:19;;;;;;;12.73;6.57;;;10.00;99.90;;;;;;4917181;29;20229;-76
2024/01/26 10:57:46;;;;;;;9.30;6.20;;;10.10;99.90;;;;;;4918349;29;20248;-76
2024/01/26 11:00:15;;;;;;;7.47;5.50;;;10.20;99.90;;;;;;4916968;29;20312;-79
2024/01/26 11:02:44;;;;;;;11.80;6.93;;;10.30;99.90;;;;;;4917233;29;20225;-79
2024/01/26 11:05:13;;;;;;;9.88;6.72;;;10.40;99.90;;;;;;4916696;29;20231;-77
2024/01/26 11:07:40;;;;;;;13.50;6.85;;;10.50;99.90;;;;;;4916999;29;20221;-77
2024/01/26 11:10:16;;;;;;;12.93;8.27;;;10.60;99.90;;;;;;4916267;29;20239;-77
2024/01/26 11:12:44;;;;;;;14.20;7.63;;;10.60;99.90;;;;;;4916923;29;20239;-78
2024/01/26 11:15:13;;;;;;;9.90;6.60;;;10.70;99.90;;;;;;4916439;29;20244;-77
2024/01/26 11:17:51;;;;;;;11.30;7.97;;;10.70;99.90;;;;;;4916428;29;20225;-79
2024/01/26 11:20:25;;;;;;;10.27;6.65;;;10.70;99.90;;;;;;4916664;29;20229;-79
2024/01/26 11:23:00;;;;;;;10.63;7.38;;;10.80;99.90;;;;;;4917054;29;20744;-77
2024/01/26 11:25:29;;;;;;;16.38;7.32;;;10.80;99.90;;;;;;4916581;29;20256;-78
2024/01/26 11:28:00;;;;;;;10.98;6.63;;;10.80;99.90;;;;;;4916856;29;20233;-79
2024/01/26 11:30:28;;;;;;;17.55;6.82;;;10.80;99.90;;;;;;4916496;29;20579;-78
2024/01/26 11:32:58;;;;;;;15.63;8.15;;;10.80;99.90;;;;;;4916175;29;20229;-77
2024/01/26 11:35:25;;;;;;;23.23;7.88;;;10.80;99.90;;;;;;4916072;29;20268;-77
2024/01/26 11:37:53;;;;;;;24.48;8.63;;;10.80;99.90;;;;;;4916761;29;20232;-78
2024/01/26 11:40:23;;;;;;;25.20;8.23;;;10.80;99.90;;;;;;4916466;29;20225;-79
2024/01/26 11:42:50;;;;;;;24.80;7.85;;;10.80;99.90;;;;;;4919653;29;20221;-79
2024/01/26 11:45:42;;;;;;;21.50;10.75;;;10.80;99.90;;;;;;4919877;29;20271;-79
2024/01/26 11:48:11;;;;;;;16.50;8.90;;;10.80;99.90;;;;;;4920105;29;20269;-79
2024/01/26 11:50:43;;;;;;;11.52;7.18;;;10.80;99.90;;;;;;4920254;29;20690;-79
2024/01/26 11:53:11;;;;;;;12.85;6.00;;;10.80;99.90;;;;;;4919633;29;20403;-79
2024/01/26 11:55:39;;;;;;;8.88;6.65;;;10.90;99.90;;;;;;4920087;29;20233;-79
2024/01/26 11:58:06;;;;;;;12.90;6.63;;;10.90;99.90;;;;;;4920378;29;20229;-79
2024/01/26 12:00:34;;;;;;;26.80;11.35;;;10.90;99.90;;;;;;4919664;29;20222;-79
2024/01/26 12:03:04;;;;;;;33.47;12.85;;;10.90;99.90;;;;;;4920007;29;20266;-79
2024/01/26 12:05:34;;;;;;;14.55;6.57;;;11.00;99.90;;;;;;4919679;29;20245;-79
2024/01/26 12:08:01;;;;;;;8.13;6.47;;;11.00;99.90;;;;;;4919761;29;20233;-79
2024/01/26 12:10:28;;;;;;;9.80;4.40;;;11.00;99.90;;;;;;4919427;29;20233;-79
2024/01/26 12:12:55;;;;;;;10.15;5.53;;;11.00;99.90;;;;;;4919965;29;20225;-78
2024/01/26 12:15:27;;;;;;;11.88;6.00;;;11.00;99.90;;;;;;4919127;29;20234;-77
2024/01/26 12:17:54;;;;;;;13.68;6.70;;;11.00;99.90;;;;;;4919828;29;20562;-79
2024/01/26 12:20:21;;;;;;;19.83;5.93;;;11.00;99.90;;;;;;4919194;29;20233;-78
2024/01/26 12:22:50;;;;;;;9.07;6.20;;;11.00;99.90;;;;;;4919698;29;20244;-78
2024/01/26 12:25:17;;;;;;;12.43;6.13;;;11.00;99.90;;;;;;4918997;29;20305;-78
2024/01/26 12:27:49;;;;;;;8.63;5.82;;;11.00;99.90;;;;;;4916885;29;20230;-79
2024/01/26 12:30:17;;;;;;;6.95;6.13;;;11.00;99.90;;;;;;4912138;29;20226;-78
2024/01/26 12:32:44;;;;;;;8.13;5.97;;;11.10;99.90;;;;;;4899987;29;20254;-78
2024/01/26 12:35:11;;;;;;;7.15;5.82;;;11.00;99.90;;;;;;4900751;29;20226;-78
2024/01/26 12:37:38;;;;;;;13.27;6.53;;;11.00;99.90;;;;;;4899955;29;20237;-78
2024/01/26 12:40:08;;;;;;;9.70;6.07;;;11.00;99.90;;;;;;4900526;29;20290;-81
2024/01/26 12:42:35;;;;;;;8.48;7.10;;;11.00;99.90;;;;;;4900737;29;20309;-80
2024/01/26 12:45:02;;;;;;;12.93;6.80;;;11.00;99.90;;;;;;4900119;29;20228;-80
2024/01/26 12:47:30;;;;;;;6.53;5.72;;;11.00;99.90;;;;;;4895006;29;20680;-80
2024/01/26 12:49:57;;;;;;;6.93;5.43;;;11.00;99.90;;;;;;4896258;29;20230;-80